createdAt,value
2023-01-27T00:00:23.862Z,43.28
2023-01-27T00:02:50.537Z,43.22
2023-01-27T00:05:17.216Z,43.16
2023-01-27T00:07:46.503Z,43.16
2023-01-27T00:10:17.874Z,43.09
2023-01-27T00:13:03.634Z,43.19
2023-01-27T00:15:30.736Z,43.21
2023-01-27T00:17:57.380Z,43.38
2023-01-27T00:20:42.530Z,43.37
2023-01-27T00:23:38.876Z,43.23
2023-01-27T00:26:07.601Z,43.38
2023-01-27T00:28:34.874Z,43.25
2023-01-27T00:31:01.563Z,43.25
2023-01-27T00:33:28.393Z,43.58
2023-01-27T00:36:06.033Z,43.21
2023-01-27T00:38:34.303Z,43.20
2023-01-27T00:41:19.515Z,43.33
2023-01-27T00:43:47.152Z,43.48
2023-01-27T00:46:13.938Z,43.26
2023-01-27T00:48:40.521Z,43.58
2023-01-27T00:51:07.067Z,43.27
2023-01-27T00:53:33.599Z,43.07
2023-01-27T00:56:00.147Z,43.47
2023-01-27T00:58:27.200Z,43.25
2023-01-27T01:00:54.827Z,43.17
2023-01-27T01:03:22.043Z,43.26
2023-01-27T01:05:49.434Z,43.38
2023-01-27T01:08:15.967Z,43.64
2023-01-27T01:10:42.549Z,42.67
2023-01-27T01:13:11.816Z,43.52
2023-01-27T01:15:39.087Z,43.41
2023-01-27T01:18:05.708Z,43.20
2023-01-27T01:20:35.374Z,43.55
2023-01-27T01:23:01.884Z,43.14
2023-01-27T01:25:28.490Z,43.46
2023-01-27T01:27:55.079Z,43.57
2023-01-27T01:30:21.780Z,43.50
2023-01-27T01:32:48.352Z,43.31
2023-01-27T01:35:14.922Z,43.42
2023-01-27T01:37:41.488Z,43.75
2023-01-27T01:40:08.833Z,43.54
2023-01-27T01:42:53.573Z,43.48
2023-01-27T01:45:32.400Z,43.34
2023-01-27T01:48:37.913Z,43.34
2023-01-27T01:51:13.745Z,43.49
2023-01-27T01:54:01.570Z,43.53
2023-01-27T01:56:34.866Z,43.43
2023-01-27T01:59:03.794Z,43.49
2023-01-27T02:01:30.428Z,43.46
2023-01-27T02:03:58.342Z,43.41
2023-01-27T02:06:24.909Z,43.14
2023-01-27T02:08:51.885Z,43.53
2023-01-27T02:11:18.543Z,43.52
2023-01-27T02:13:45.053Z,43.42
2023-01-27T02:16:11.642Z,43.63
2023-01-27T02:18:41.389Z,43.56
2023-01-27T02:21:07.990Z,43.70
2023-01-27T02:23:50.565Z,43.65
2023-01-27T02:26:30.313Z,43.54
2023-01-27T02:29:03.345Z,43.56
2023-01-27T02:31:29.978Z,43.60
2023-01-27T02:34:01.993Z,43.58
2023-01-27T02:36:28.963Z,43.39
2023-01-27T02:38:55.909Z,43.56
2023-01-27T02:41:22.325Z,43.35
2023-01-27T02:43:49.096Z,43.48
2023-01-27T02:46:16.165Z,43.47
2023-01-27T02:48:42.775Z,43.31
2023-01-27T02:51:09.290Z,43.55
2023-01-27T02:53:35.845Z,43.38
2023-01-27T02:56:02.620Z,43.34
2023-01-27T02:58:29.212Z,43.76
2023-01-27T03:00:55.789Z,43.66
2023-01-27T03:03:22.344Z,43.19
2023-01-27T03:05:50.881Z,43.28
2023-01-27T03:08:18.473Z,43.58
2023-01-27T03:10:45.147Z,43.53
2023-01-27T03:13:11.704Z,43.94
2023-01-27T03:15:56.978Z,43.46
2023-01-27T03:18:23.632Z,43.64
2023-01-27T03:20:50.140Z,43.59
2023-01-27T03:23:18.220Z,43.78
2023-01-27T03:25:47.176Z,43.50
2023-01-27T03:28:14.126Z,43.84
2023-01-27T03:30:40.919Z,43.66
2023-01-27T03:33:07.710Z,43.49
2023-01-27T03:35:39.108Z,43.85
2023-01-27T03:38:25.761Z,43.74
2023-01-27T03:41:10.924Z,43.67
2023-01-27T03:43:56.100Z,43.48
2023-01-27T03:46:22.703Z,43.57
2023-01-27T03:48:53.754Z,43.56
2023-01-27T03:51:22.290Z,43.58
2023-01-27T03:53:48.920Z,43.45
2023-01-27T03:56:15.831Z,43.58
2023-01-27T03:58:42.439Z,43.50
2023-01-27T04:01:13.225Z,43.58
2023-01-27T04:03:58.379Z,43.50
2023-01-27T04:06:45.842Z,43.46
2023-01-27T04:09:13.011Z,43.76
2023-01-27T04:11:58.001Z,43.62
2023-01-27T04:14:28.897Z,43.33
2023-01-27T04:17:15.637Z,43.52
2023-01-27T04:19:42.205Z,43.58
2023-01-27T04:22:10.344Z,43.70
2023-01-27T04:24:36.856Z,43.48
2023-01-27T04:27:13.862Z,43.61
2023-01-27T04:29:41.335Z,43.68
2023-01-27T04:32:09.480Z,43.42
2023-01-27T04:34:36.118Z,43.27
2023-01-27T04:37:06.786Z,43.58
2023-01-27T04:39:33.438Z,43.96
2023-01-27T04:42:00.029Z,43.42
2023-01-27T04:44:26.670Z,43.73
2023-01-27T04:46:54.652Z,43.74
2023-01-27T04:49:21.294Z,43.66
2023-01-27T04:51:47.808Z,43.31
2023-01-27T04:54:14.379Z,43.39
2023-01-27T04:56:44.387Z,43.47
2023-01-27T04:59:12.136Z,43.53
2023-01-27T05:01:38.862Z,43.34
2023-01-27T05:04:05.476Z,43.50
2023-01-27T05:06:32.083Z,43.51
2023-01-27T05:08:58.610Z,43.37
2023-01-27T05:11:25.168Z,43.16
2023-01-27T05:13:51.649Z,43.22
2023-01-27T05:16:22.841Z,43.44
2023-01-27T05:18:50.347Z,43.10
2023-01-27T05:21:19.018Z,43.31
2023-01-27T05:23:45.740Z,43.12
2023-01-27T05:26:13.613Z,43.30
2023-01-27T05:28:41.914Z,43.29
2023-01-27T05:31:13.339Z,43.23
2023-01-27T05:33:40.326Z,43.56
2023-01-27T05:36:07.857Z,43.79
2023-01-27T05:38:34.583Z,43.42
2023-01-27T05:41:04.258Z,43.44
2023-01-27T05:43:31.681Z,43.54
2023-01-27T05:46:03.341Z,43.54
2023-01-27T05:48:30.150Z,43.57
2023-01-27T05:50:57.532Z,43.66
2023-01-27T05:53:24.698Z,43.69
2023-01-27T05:55:51.987Z,43.53
2023-01-27T05:58:18.978Z,42.20
2023-01-27T06:00:45.546Z,40.45
2023-01-27T06:03:12.278Z,39.79
2023-01-27T06:05:38.934Z,40.45
2023-01-27T06:08:05.499Z,41.16
2023-01-27T06:10:32.106Z,41.99
2023-01-27T06:13:00.665Z,42.10
2023-01-27T06:15:27.182Z,42.35
2023-01-27T06:17:53.828Z,42.29
2023-01-27T06:20:20.378Z,43.23
2023-01-27T06:22:46.992Z,42.94
2023-01-27T06:25:13.758Z,43.26
2023-01-27T06:27:40.436Z,42.99
2023-01-27T06:30:08.044Z,43.23
2023-01-27T06:32:37.633Z,43.26
2023-01-27T06:35:04.424Z,43.13
2023-01-27T06:37:31.219Z,43.24
2023-01-27T06:39:57.762Z,43.10
2023-01-27T06:42:24.272Z,43.05
2023-01-27T06:44:50.823Z,42.33
2023-01-27T06:47:17.346Z,39.69
2023-01-27T06:49:43.902Z,38.69
2023-01-27T06:52:10.506Z,38.79
2023-01-27T06:54:37.095Z,39.52
2023-01-27T06:57:03.636Z,40.27
2023-01-27T06:59:30.228Z,40.49
2023-01-27T07:01:56.755Z,41.11
2023-01-27T07:04:23.304Z,40.89
2023-01-27T07:06:49.831Z,41.06
2023-01-27T07:09:16.440Z,40.93
2023-01-27T07:11:43.063Z,41.50
2023-01-27T07:14:10.599Z,41.56
2023-01-27T07:16:37.400Z,41.91
2023-01-27T07:19:03.939Z,41.67
2023-01-27T07:21:30.437Z,42.04
2023-01-27T07:23:57.001Z,41.97
2023-01-27T07:26:25.314Z,42.21
2023-01-27T07:28:52.430Z,42.28
2023-01-27T07:31:19.162Z,42.42
2023-01-27T07:33:45.760Z,42.62
2023-01-27T07:36:12.295Z,42.45
2023-01-27T07:38:39.114Z,42.29
2023-01-27T07:41:06.354Z,42.64
2023-01-27T07:43:33.699Z,42.56
2023-01-27T07:46:00.393Z,42.79
2023-01-27T07:48:26.935Z,42.45
2023-01-27T07:50:53.449Z,42.30
2023-01-27T07:53:19.952Z,42.05
2023-01-27T07:55:46.518Z,42.49
2023-01-27T07:58:13.139Z,42.39
2023-01-27T08:00:39.717Z,42.63
2023-01-27T08:03:06.345Z,42.91
2023-01-27T08:05:33.571Z,42.98
2023-01-27T08:08:03.824Z,43.11
2023-01-27T08:10:30.698Z,43.15
2023-01-27T08:12:57.254Z,43.17
2023-01-27T08:15:23.876Z,43.19
2023-01-27T08:17:57.043Z,43.30
2023-01-27T08:20:24.153Z,43.36
2023-01-27T08:22:50.701Z,43.46
2023-01-27T08:25:17.232Z,43.48
2023-01-27T08:27:43.785Z,43.16
2023-01-27T08:30:11.229Z,43.25
2023-01-27T08:32:37.981Z,43.36
2023-01-27T08:35:04.768Z,43.27
2023-01-27T08:37:31.793Z,43.85
2023-01-27T08:39:58.340Z,43.28
2023-01-27T08:42:25.018Z,43.38
2023-01-27T08:44:51.543Z,43.29
2023-01-27T08:47:18.151Z,43.31
2023-01-27T08:49:44.714Z,43.35
2023-01-27T08:52:11.329Z,42.95
2023-01-27T08:54:37.896Z,43.56
2023-01-27T08:57:04.405Z,43.18
2023-01-27T08:59:30.952Z,43.48
2023-01-27T09:01:57.483Z,43.35
2023-01-27T09:04:24.028Z,43.64
2023-01-27T09:06:50.611Z,43.40
2023-01-27T09:09:17.149Z,43.95
2023-01-27T09:11:44.574Z,43.70
2023-01-27T09:14:11.257Z,43.65
2023-01-27T09:16:37.854Z,43.74
2023-01-27T09:19:04.436Z,43.97
2023-01-27T09:21:31.054Z,43.81
2023-01-27T09:23:57.649Z,43.67
2023-01-27T09:26:24.207Z,44.11
2023-01-27T09:28:50.724Z,43.66
2023-01-27T09:31:17.388Z,43.81
2023-01-27T09:33:44.041Z,43.88
2023-01-27T09:36:11.962Z,43.96
2023-01-27T09:38:44.021Z,43.56
2023-01-27T09:41:42.780Z,43.77
2023-01-27T09:44:34.175Z,43.81
2023-01-27T09:47:24.094Z,44.01
2023-01-27T09:49:50.514Z,44.00
2023-01-27T09:52:48.374Z,43.91
2023-01-27T09:55:27.861Z,44.19
2023-01-27T09:57:57.325Z,44.00
2023-01-27T10:00:44.937Z,44.17
2023-01-27T10:03:26.577Z,44.18
2023-01-27T10:06:22.908Z,44.09
2023-01-27T10:09:14.350Z,43.97
2023-01-27T10:12:02.233Z,44.09
2023-01-27T10:14:34.914Z,44.13
2023-01-27T10:17:17.662Z,44.17
2023-01-27T10:19:47.189Z,44.22
2023-01-27T10:22:37.874Z,44.15
2023-01-27T10:25:29.205Z,44.34
2023-01-27T10:28:01.832Z,44.26
2023-01-27T10:30:36.072Z,44.35
2023-01-27T10:33:11.613Z,44.42
2023-01-27T10:35:47.958Z,44.26
2023-01-27T10:38:27.016Z,44.39
2023-01-27T10:41:29.072Z,44.37
2023-01-27T10:44:21.898Z,44.53
2023-01-27T10:47:17.540Z,44.36
2023-01-27T10:49:49.531Z,44.43
2023-01-27T10:52:38.622Z,44.32
2023-01-27T10:55:14.105Z,44.50
2023-01-27T10:57:45.328Z,44.69
2023-01-27T11:00:51.763Z,44.50
2023-01-27T11:03:41.961Z,44.60
2023-01-27T11:06:19.361Z,44.84
2023-01-27T11:08:47.170Z,44.55
2023-01-27T11:11:32.442Z,45.68
2023-01-27T11:14:04.500Z,44.56
2023-01-27T11:16:34.875Z,44.58
2023-01-27T11:19:05.718Z,44.77
2023-01-27T11:21:32.286Z,45.03
2023-01-27T11:24:00.507Z,44.90
2023-01-27T11:26:47.548Z,44.85
2023-01-27T11:29:24.116Z,45.15
2023-01-27T11:32:00.633Z,45.33
2023-01-27T11:35:06.387Z,45.40
2023-01-27T11:37:40.586Z,45.30
2023-01-27T11:40:20.526Z,45.47
2023-01-27T11:42:47.066Z,44.97
2023-01-27T11:45:18.894Z,45.31
2023-01-27T11:47:46.723Z,45.32
2023-01-27T11:50:18.277Z,45.31
2023-01-27T11:52:49.831Z,45.35
2023-01-27T11:55:21.838Z,45.36
2023-01-27T11:57:51.449Z,45.36
2023-01-27T12:00:24.133Z,45.36
2023-01-27T12:02:55.286Z,45.51
2023-01-27T12:05:27.325Z,45.36
2023-01-27T12:08:01.382Z,45.32
2023-01-27T12:10:41.972Z,45.52
2023-01-27T12:13:19.047Z,45.45
2023-01-27T12:15:49.542Z,45.66
2023-01-27T12:18:16.117Z,45.85
2023-01-27T12:20:46.639Z,45.50
2023-01-27T12:23:31.477Z,45.41
2023-01-27T12:25:58.377Z,45.48
2023-01-27T12:28:47.621Z,45.47
2023-01-27T12:31:19.713Z,45.51
2023-01-27T12:33:49.877Z,45.53
2023-01-27T12:36:23.734Z,43.58
2023-01-27T12:38:54.918Z,40.96
2023-01-27T12:41:27.756Z,40.64
2023-01-27T12:44:08.415Z,40.46
2023-01-27T12:46:34.945Z,40.65
2023-01-27T12:49:13.234Z,41.17
2023-01-27T12:51:48.387Z,41.54
2023-01-27T12:54:22.071Z,42.00
2023-01-27T12:56:49.662Z,42.01
2023-01-27T12:59:17.321Z,42.22
2023-01-27T13:01:44.954Z,42.68
2023-01-27T13:04:18.335Z,42.64
2023-01-27T13:06:47.859Z,43.16
2023-01-27T13:09:36.974Z,43.06
2023-01-27T13:12:29.231Z,43.31
2023-01-27T13:15:05.677Z,43.53
2023-01-27T13:17:42.664Z,43.54
2023-01-27T13:20:30.403Z,43.74
2023-01-27T13:23:05.976Z,43.85
2023-01-27T13:26:02.208Z,43.88
2023-01-27T13:28:50.222Z,44.12
2023-01-27T13:31:37.978Z,43.98
2023-01-27T13:34:06.004Z,44.00
2023-01-27T13:36:41.317Z,44.59
2023-01-27T13:39:54.975Z,44.27
2023-01-27T13:42:27.802Z,44.22
2023-01-27T13:45:05.818Z,44.08
2023-01-27T13:47:42.422Z,44.23
2023-01-27T13:50:21.847Z,44.17
2023-01-27T13:52:56.358Z,44.13
2023-01-27T13:55:47.314Z,44.50
2023-01-27T13:58:25.987Z,44.50
2023-01-27T14:01:12.729Z,44.59
2023-01-27T14:03:42.529Z,44.38
2023-01-27T14:06:16.221Z,44.69
2023-01-27T14:09:04.932Z,44.62
2023-01-27T14:12:04.654Z,44.67
2023-01-27T14:14:34.056Z,44.48
2023-01-27T14:17:29.854Z,44.47
2023-01-27T14:20:19.221Z,44.60
2023-01-27T14:23:36.050Z,44.53
2023-01-27T14:26:11.197Z,44.62
2023-01-27T14:29:02.312Z,44.73
2023-01-27T14:31:44.026Z,44.76
2023-01-27T14:34:16.649Z,44.59
2023-01-27T14:36:44.645Z,44.75
2023-01-27T14:39:32.767Z,44.03
2023-01-27T14:42:02.252Z,41.08
2023-01-27T14:44:43.458Z,40.37
2023-01-27T14:47:32.330Z,41.04
2023-01-27T14:50:04.874Z,41.66
2023-01-27T14:52:57.599Z,41.44
2023-01-27T14:55:45.719Z,40.39
2023-01-27T14:58:24.078Z,39.34
2023-01-27T15:01:08.858Z,39.11
2023-01-27T15:04:00.790Z,39.67
2023-01-27T15:06:34.004Z,40.42
2023-01-27T15:09:25.461Z,40.85
2023-01-27T15:12:48.085Z,41.30
2023-01-27T15:15:26.471Z,40.61
2023-01-27T15:18:15.512Z,40.85
2023-01-27T15:21:05.294Z,40.94
2023-01-27T15:23:46.948Z,41.26
2023-01-27T15:26:13.620Z,41.74
2023-01-27T15:28:40.889Z,41.77
2023-01-27T15:31:15.324Z,41.79
2023-01-27T15:33:57.356Z,41.91
2023-01-27T15:36:26.837Z,41.91
2023-01-27T15:39:16.511Z,42.23
2023-01-27T15:41:53.391Z,42.45
2023-01-27T15:44:29.675Z,42.37
2023-01-27T15:47:18.905Z,42.47
2023-01-27T15:49:50.429Z,42.61
2023-01-27T15:52:56.253Z,42.64
2023-01-27T15:55:31.400Z,42.59
2023-01-27T15:58:53.920Z,42.61
2023-01-27T16:01:31.024Z,42.70
2023-01-27T16:04:12.706Z,42.77
2023-01-27T16:06:51.804Z,43.00
2023-01-27T16:09:26.167Z,43.14
2023-01-27T16:12:20.122Z,43.06
2023-01-27T16:14:46.828Z,43.09
2023-01-27T16:17:25.032Z,43.21
2023-01-27T16:20:20.925Z,43.13
2023-01-27T16:22:49.932Z,43.22
2023-01-27T16:25:27.350Z,43.36
2023-01-27T16:28:13.631Z,43.34
2023-01-27T16:31:09.381Z,43.36
2023-01-27T16:33:41.237Z,43.34
2023-01-27T16:36:46.325Z,43.78
2023-01-27T16:39:18.460Z,43.64
2023-01-27T16:41:52.249Z,43.92
2023-01-27T16:44:31.219Z,43.93
2023-01-27T16:47:05.045Z,44.17
2023-01-27T16:49:39.337Z,44.07
2023-01-27T16:52:05.999Z,44.20
2023-01-27T16:54:37.977Z,43.87
2023-01-27T16:57:05.320Z,44.39
2023-01-27T16:59:36.150Z,44.00
2023-01-27T17:02:19.181Z,44.12
2023-01-27T17:04:53.201Z,44.25
2023-01-27T17:07:19.807Z,43.99
2023-01-27T17:09:54.294Z,43.81
2023-01-27T17:12:27.172Z,44.18
2023-01-27T17:14:53.944Z,44.50
2023-01-27T17:17:21.164Z,44.11
2023-01-27T17:19:48.500Z,44.11
2023-01-27T17:22:41.457Z,44.25
2023-01-27T17:25:13.827Z,44.08
2023-01-27T17:27:43.403Z,44.23
2023-01-27T17:30:37.078Z,43.90
2023-01-27T17:33:04.776Z,43.59
2023-01-27T17:35:33.706Z,43.49
2023-01-27T17:38:15.375Z,43.61
2023-01-27T17:40:44.265Z,43.78
2023-01-27T17:43:31.963Z,43.95
2023-01-27T17:46:04.904Z,43.91
2023-01-27T17:48:35.813Z,43.98
2023-01-27T17:51:02.563Z,43.96
2023-01-27T17:53:29.089Z,44.20
2023-01-27T17:55:55.722Z,44.01
2023-01-27T17:58:26.630Z,44.17
2023-01-27T18:00:53.205Z,44.24
2023-01-27T18:03:23.200Z,44.09
2023-01-27T18:05:51.292Z,44.17
2023-01-27T18:08:19.417Z,44.07
2023-01-27T18:10:46.239Z,44.03
2023-01-27T18:13:15.686Z,43.96
2023-01-27T18:15:48.370Z,43.43
2023-01-27T18:18:36.717Z,41.68
2023-01-27T18:21:09.156Z,40.58
2023-01-27T18:23:44.779Z,40.12
2023-01-27T18:26:18.461Z,40.39
2023-01-27T18:28:45.878Z,40.94
2023-01-27T18:31:21.865Z,41.21
2023-01-27T18:34:06.661Z,41.50
2023-01-27T18:36:35.616Z,41.68
2023-01-27T18:39:25.091Z,41.99
2023-01-27T18:41:51.708Z,41.93
2023-01-27T18:44:18.978Z,42.19
2023-01-27T18:46:45.582Z,42.14
2023-01-27T18:49:12.284Z,42.48
2023-01-27T18:51:38.909Z,42.50
2023-01-27T18:54:05.973Z,42.70
2023-01-27T18:56:32.501Z,42.78
2023-01-27T18:58:59.087Z,42.71
2023-01-27T19:01:25.609Z,42.39
2023-01-27T19:03:53.795Z,43.00
2023-01-27T19:06:20.485Z,42.76
2023-01-27T19:08:49.496Z,42.51
2023-01-27T19:11:19.153Z,43.15
2023-01-27T19:13:46.098Z,42.98
2023-01-27T19:16:14.354Z,43.12
2023-01-27T19:18:44.537Z,42.97
2023-01-27T19:21:14.776Z,43.09
2023-01-27T19:23:49.383Z,43.16
2023-01-27T19:26:17.606Z,43.11
2023-01-27T19:28:45.102Z,43.13
2023-01-27T19:31:11.802Z,43.03
2023-01-27T19:33:38.945Z,43.41
2023-01-27T19:36:22.992Z,43.31
2023-01-27T19:39:20.637Z,43.34
2023-01-27T19:41:47.379Z,43.47
2023-01-27T19:44:14.494Z,43.52
2023-01-27T19:46:41.446Z,43.69
2023-01-27T19:49:17.192Z,43.65
2023-01-27T19:51:43.730Z,43.59
2023-01-27T19:54:10.307Z,43.66
2023-01-27T19:56:36.860Z,43.66
2023-01-27T19:59:04.125Z,43.39
2023-01-27T20:01:30.645Z,44.13
2023-01-27T20:03:57.291Z,43.68
2023-01-27T20:06:25.696Z,43.75
2023-01-27T20:08:54.977Z,43.96
2023-01-27T20:11:37.589Z,43.88
2023-01-27T20:14:12.188Z,44.01
2023-01-27T20:16:38.820Z,44.20
2023-01-27T20:19:05.441Z,43.97
2023-01-27T20:21:33.287Z,44.33
2023-01-27T20:24:01.187Z,44.41
2023-01-27T20:26:29.653Z,44.27
2023-01-27T20:28:56.328Z,44.32
2023-01-27T20:31:22.942Z,44.21
2023-01-27T20:33:50.271Z,44.06
2023-01-27T20:36:21.322Z,44.21
2023-01-27T20:38:48.240Z,43.98
2023-01-27T20:41:16.350Z,44.35
2023-01-27T20:43:42.953Z,44.29
2023-01-27T20:46:11.588Z,44.34
2023-01-27T20:48:38.211Z,44.19
2023-01-27T20:51:06.493Z,44.39
2023-01-27T20:53:34.298Z,44.60
2023-01-27T20:56:00.880Z,44.28
2023-01-27T20:58:27.825Z,44.50
2023-01-27T21:01:10.052Z,44.46
2023-01-27T21:03:39.485Z,44.23
2023-01-27T21:06:06.642Z,44.37
2023-01-27T21:08:33.334Z,44.42
2023-01-27T21:11:03.462Z,44.36
2023-01-27T21:13:30.063Z,44.74
2023-01-27T21:15:56.813Z,44.39
2023-01-27T21:18:23.477Z,44.62
2023-01-27T21:20:51.214Z,44.48
2023-01-27T21:23:20.960Z,44.59
2023-01-27T21:25:47.805Z,44.89
2023-01-27T21:28:15.063Z,44.69
2023-01-27T21:30:41.818Z,44.77
2023-01-27T21:33:08.465Z,44.71
2023-01-27T21:35:35.228Z,44.67
2023-01-27T21:38:01.848Z,44.62
2023-01-27T21:40:28.535Z,44.81
2023-01-27T21:43:13.564Z,44.54
2023-01-27T21:45:40.139Z,44.47
2023-01-27T21:48:06.774Z,44.71
2023-01-27T21:50:33.467Z,44.67
2023-01-27T21:53:00.116Z,44.82
2023-01-27T21:55:28.505Z,44.75
2023-01-27T21:57:55.396Z,44.82
2023-01-27T22:00:24.013Z,44.98
2023-01-27T22:02:57.680Z,44.91
2023-01-27T22:05:24.428Z,44.86
2023-01-27T22:07:51.858Z,45.02
2023-01-27T22:10:20.820Z,44.85
2023-01-27T22:12:47.460Z,45.03
2023-01-27T22:15:16.824Z,45.22
2023-01-27T22:17:44.298Z,45.20
2023-01-27T22:20:17.649Z,45.06
2023-01-27T22:22:44.520Z,45.06
2023-01-27T22:25:12.402Z,45.27
2023-01-27T22:27:42.071Z,45.07
2023-01-27T22:30:16.877Z,45.00
2023-01-27T22:32:44.069Z,45.19
2023-01-27T22:35:10.853Z,45.45
2023-01-27T22:37:37.902Z,45.35
2023-01-27T22:40:06.533Z,45.45
2023-01-27T22:42:33.365Z,45.63
2023-01-27T22:44:59.931Z,45.51
2023-01-27T22:47:26.556Z,45.82
2023-01-27T22:49:53.102Z,45.33
2023-01-27T22:52:19.600Z,45.65
2023-01-27T22:54:46.268Z,45.48
2023-01-27T22:57:13.044Z,45.76
2023-01-27T22:59:39.570Z,45.97
2023-01-27T23:02:06.105Z,45.93
2023-01-27T23:04:32.653Z,45.69
2023-01-27T23:06:59.189Z,46.49
2023-01-27T23:09:25.737Z,46.40
2023-01-27T23:11:52.258Z,46.25
2023-01-27T23:14:19.183Z,46.68
2023-01-27T23:16:45.760Z,46.78
2023-01-27T23:19:12.428Z,46.86
2023-01-27T23:21:39.164Z,46.73
2023-01-27T23:24:07.608Z,46.60
2023-01-27T23:26:34.430Z,46.62
2023-01-27T23:29:01.005Z,46.23
2023-01-27T23:31:27.680Z,46.47
2023-01-27T23:33:54.322Z,45.81
2023-01-27T23:36:20.833Z,45.92
2023-01-27T23:38:47.441Z,46.04
2023-01-27T23:41:18.219Z,46.23
2023-01-27T23:43:45.670Z,46.45
2023-01-27T23:46:13.335Z,46.45
2023-01-27T23:48:39.907Z,46.58
2023-01-27T23:51:08.189Z,46.55
2023-01-27T23:53:34.780Z,46.80
2023-01-27T23:56:01.354Z,46.77
2023-01-27T23:58:27.917Z,46.51
